메인 페이지
METAR-TAF:

METAR-TAF

공항 :

두마게테, 필리핀

위도: 09-20-01N, 경도: 123-18-02E, 고도: 5m

현재 날씨관측

예보는 1 시간 42분 전, 12:00시(UTC)에 발표되었습니다.
온도 28°C
습도 94%
기압 1008 hPa
시정 10km 이상
고도 1500ft 상공 구름 조금
고도 7000ft 상공 구름 보통

METAR: RPVD 251200Z 0000KT 9999 FEW015 SCT070 28/27 Q1008 RMK A2977

시각: 21:42 (13:42 UTC)

예보

예보는 2 시간 42분 전, 11:00시(UTC)에 발표되었습니다.
예보 대상 시간: 25일 12시부터 26일 12시까지 (UTC)
남서4kt
시정 10km 이상
고도 1500ft 상공 구름 보통
전환 중
26일 00시부터 26일 02시까지 (UTC)
8kt
일시적
26일 05시부터 26일 11시까지 (UTC)
여러 방향의 바람 6kt
고도 1400ft 상공 구름 조금, 적란운.
고도 1500ft 상공 구름 보통
고도 7000ft 상공 구름 많음
약한소나기,

TAF: RPVD 251100Z 2512/2612 22004KT 9999 SCT015 BECMG 2600/2602 18008KT TEMPO 2605/2611 VRB06KT -SHRA FEW014CB SCT015 BKN070

4,000개 이상의 공항 관측 자료 및 예보 (METAR 및 TAF 보고).

지도상에서 검색 가능한 기상관측소가 노란 점과 빨간 점으로 표시되어 있습니다.

기상관측소 명을 보려면 표시 위로 마우스를 이동하세요.

날씨 관측과 예보를 보려면 클릭하세요.

지도 변경 : 확대하려면 엑스 표시가 있는 녹색 버튼, 축소하려면 빼기 표시가 있는 녹색 버튼, 다음 페이지의 지도를 보려면 녹색 화살표를 클릭하세요.


METAR-TAF: